createdAt,value
2023-01-31T00:00:55.169Z,99227.88
2023-01-31T00:05:59.317Z,99219.19
2023-01-31T00:11:02.124Z,99207.69
2023-01-31T00:16:05.728Z,99201.69
2023-01-31T00:21:12.188Z,99205.44
2023-01-31T00:26:16.689Z,99210.03
2023-01-31T00:31:21.062Z,99222.28
2023-01-31T00:36:29.279Z,99216.03
2023-01-31T00:41:32.491Z,99224.66
2023-01-31T00:46:36.160Z,99226.31
2023-01-31T00:51:40.784Z,99216.56
2023-01-31T00:56:44.709Z,99229.78
2023-01-31T01:01:47.478Z,99220.03
2023-01-31T01:06:51.653Z,99228.84
2023-01-31T01:11:54.771Z,99228.84
2023-01-31T01:16:59.037Z,99226.31
2023-01-31T01:22:04.833Z,99246.50
2023-01-31T01:27:07.628Z,99238.69
2023-01-31T01:32:10.423Z,99232.63
2023-01-31T01:37:20.097Z,99230.84
2023-01-31T01:42:25.151Z,99222.94
2023-01-31T01:47:36.437Z,99242.94
2023-01-31T01:52:45.534Z,99242.00
2023-01-31T01:57:51.383Z,99231.50
2023-01-31T02:02:58.008Z,99219.25
2023-01-31T02:08:03.573Z,99221.16
2023-01-31T02:13:06.716Z,99219.38
2023-01-31T02:18:10.465Z,99225.66
2023-01-31T02:23:54.487Z,99220.38
2023-01-31T02:29:24.653Z,99211.63
2023-01-31T02:34:37.800Z,99214.97
2023-01-31T02:39:48.100Z,99212.34
2023-01-31T02:45:00.581Z,99214.13
2023-01-31T02:50:13.822Z,99223.34
2023-01-31T02:55:41.712Z,99229.03
2023-01-31T03:00:46.823Z,99226.81
2023-01-31T03:06:35.729Z,99239.22
2023-01-31T03:11:53.277Z,99237.50
2023-01-31T03:17:20.111Z,99240.25
2023-01-31T03:22:28.449Z,99239.69
2023-01-31T03:27:31.426Z,99251.34
2023-01-31T03:32:39.179Z,99250.53
2023-01-31T03:37:50.278Z,99249.75
2023-01-31T03:43:02.657Z,99259.44
2023-01-31T03:48:14.369Z,99254.22
2023-01-31T03:53:25.280Z,99250.75
2023-01-31T03:58:33.957Z,99255.22
2023-01-31T04:03:41.737Z,99243.16
2023-01-31T04:08:46.775Z,99235.44
2023-01-31T04:13:51.571Z,99214.00
2023-01-31T04:18:56.446Z,99228.41
2023-01-31T04:24:00.903Z,99228.72
2023-01-31T04:29:04.134Z,99225.28
2023-01-31T04:34:07.056Z,99224.66
2023-01-31T04:39:13.660Z,99215.19
2023-01-31T04:44:16.701Z,99215.34
2023-01-31T04:49:20.265Z,99214.63
2023-01-31T04:54:24.320Z,99212.13
2023-01-31T04:59:27.016Z,99219.22
2023-01-31T05:04:29.899Z,99216.50
2023-01-31T05:09:33.950Z,99206.06
2023-01-31T05:14:36.739Z,99203.44
2023-01-31T05:19:39.508Z,99207.66
2023-01-31T05:24:43.712Z,99194.44
2023-01-31T05:29:47.054Z,99197.06
2023-01-31T05:34:49.937Z,99187.47
2023-01-31T05:39:54.097Z,99184.06
2023-01-31T05:44:58.342Z,99175.50
2023-01-31T05:50:01.592Z,99187.00
2023-01-31T05:55:06.615Z,99178.41
2023-01-31T06:00:10.584Z,99198.63
2023-01-31T06:05:16.931Z,99190.88
2023-01-31T06:10:21.408Z,99190.06
2023-01-31T06:15:24.220Z,99188.44
2023-01-31T06:20:27.496Z,99193.63
2023-01-31T06:25:32.180Z,99192.91
2023-01-31T06:30:35.036Z,99199.06
2023-01-31T06:35:38.068Z,99201.84
2023-01-31T06:40:42.315Z,99203.69
2023-01-31T06:45:45.262Z,99198.41
2023-01-31T06:50:48.299Z,99196.63
2023-01-31T06:55:52.415Z,99195.69
2023-01-31T07:00:55.259Z,99206.31
2023-01-31T07:05:58.240Z,99204.50
2023-01-31T07:11:02.699Z,99213.31
2023-01-31T07:16:06.098Z,99212.50
2023-01-31T07:21:09.023Z,99207.22
2023-01-31T07:26:13.198Z,99202.69
2023-01-31T07:31:16.424Z,99205.91
2023-01-31T07:36:26.225Z,99193.34
2023-01-31T07:41:30.312Z,99189.50
2023-01-31T07:46:33.402Z,99184.81
2023-01-31T07:51:36.108Z,99185.47
2023-01-31T07:56:41.064Z,99193.13
2023-01-31T08:02:01.254Z,99194.66
2023-01-31T08:07:05.760Z,99194.50
2023-01-31T08:12:10.023Z,99188.75
2023-01-31T08:17:12.994Z,99178.81
2023-01-31T08:22:15.862Z,99178.25
2023-01-31T08:27:20.028Z,99156.78
2023-01-31T08:32:22.762Z,99163.13
2023-01-31T08:37:26.320Z,99163.13
2023-01-31T08:42:30.698Z,99150.94
2023-01-31T08:47:33.484Z,99154.91
2023-01-31T08:52:36.487Z,99176.75
2023-01-31T08:57:56.914Z,99178.66
2023-01-31T09:03:01.862Z,99192.41
2023-01-31T09:08:04.892Z,99179.94
2023-01-31T09:13:09.000Z,99181.09
2023-01-31T09:18:11.786Z,99165.94
2023-01-31T09:23:14.517Z,99152.34
2023-01-31T09:28:18.579Z,99161.13
2023-01-31T09:33:22.012Z,99171.66
2023-01-31T09:38:24.897Z,99178.41
2023-01-31T09:43:33.857Z,99188.25
2023-01-31T09:48:41.177Z,99170.81
2023-01-31T09:53:45.678Z,99161.22
2023-01-31T09:58:57.824Z,99162.13
2023-01-31T10:04:18.841Z,99165.22
2023-01-31T10:09:27.324Z,99153.72
2023-01-31T10:14:36.650Z,99129.59
2023-01-31T10:19:46.321Z,99126.88
2023-01-31T10:24:53.565Z,99123.91
2023-01-31T10:30:01.711Z,99141.72
2023-01-31T10:35:13.829Z,99114.75
2023-01-31T10:40:19.727Z,99101.69
2023-01-31T10:45:31.098Z,99105.72
2023-01-31T10:50:46.314Z,99105.72
2023-01-31T10:56:00.419Z,99078.84
2023-01-31T11:01:07.524Z,99086.91
2023-01-31T11:06:12.901Z,99080.28
2023-01-31T11:11:18.208Z,99087.81
2023-01-31T11:16:22.541Z,99075.66
2023-01-31T11:21:27.625Z,99058.59
2023-01-31T11:26:33.782Z,99042.44
2023-01-31T11:31:45.630Z,99036.31
2023-01-31T11:36:48.509Z,99046.50
2023-01-31T11:41:51.330Z,99038.66
2023-01-31T11:46:59.901Z,99007.16
2023-01-31T11:52:12.845Z,99004.38
2023-01-31T11:57:18.154Z,99003.50
2023-01-31T12:02:32.542Z,98982.94
2023-01-31T12:07:44.324Z,98964.78
2023-01-31T12:12:47.037Z,98951.94
2023-01-31T12:17:52.011Z,98946.84
2023-01-31T12:23:07.576Z,98930.56
2023-01-31T12:28:23.722Z,98927.31
2023-01-31T12:33:44.805Z,98916.53
2023-01-31T12:38:58.939Z,98915.31
2023-01-31T12:44:30.675Z,98898.63
2023-01-31T12:50:22.163Z,98883.56
2023-01-31T12:55:32.370Z,98875.75
2023-01-31T13:00:42.333Z,98880.53
2023-01-31T13:05:51.692Z,98859.06
2023-01-31T13:11:00.013Z,98871.38
2023-01-31T13:16:12.864Z,98869.56
2023-01-31T13:21:21.272Z,98867.31
2023-01-31T13:26:29.081Z,98865.78
2023-01-31T13:31:38.308Z,98872.59
2023-01-31T13:36:46.782Z,98881.09
2023-01-31T13:41:49.655Z,98867.31
2023-01-31T13:46:58.574Z,98864.84
2023-01-31T13:52:06.217Z,98853.03
2023-01-31T13:57:19.357Z,98846.06
2023-01-31T14:02:22.468Z,98845.56
2023-01-31T14:07:26.917Z,98858.75
2023-01-31T14:12:35.203Z,98853.25
2023-01-31T14:18:01.499Z,98859.72
2023-01-31T14:23:31.437Z,98863.13
2023-01-31T14:28:34.815Z,98842.03
2023-01-31T14:33:38.063Z,98845.44
2023-01-31T14:39:01.837Z,98839.00
2023-01-31T14:44:18.569Z,98844.34
2023-01-31T14:49:51.473Z,98835.19
2023-01-31T14:55:22.279Z,98849.81
2023-01-31T15:00:29.237Z,98852.28
2023-01-31T15:05:44.121Z,98843.59
2023-01-31T15:11:05.373Z,98859.59
2023-01-31T15:16:16.438Z,98865.03
2023-01-31T15:21:25.209Z,98867.69
2023-01-31T15:26:32.730Z,98876.69
2023-01-31T15:31:41.954Z,98857.47
2023-01-31T15:36:50.040Z,98854.88
2023-01-31T15:41:54.261Z,98854.06
2023-01-31T15:46:58.665Z,98849.72
2023-01-31T15:52:14.521Z,98851.59
2023-01-31T15:57:19.220Z,98855.38
2023-01-31T16:02:29.050Z,98877.34
2023-01-31T16:07:32.452Z,98866.03
2023-01-31T16:12:43.810Z,98860.81
2023-01-31T16:17:46.903Z,98864.56
2023-01-31T16:22:57.607Z,98871.53
2023-01-31T16:28:05.874Z,98883.03
2023-01-31T16:33:17.883Z,98890.94
2023-01-31T16:38:26.764Z,98904.13
2023-01-31T16:43:33.037Z,98901.53
2023-01-31T16:48:37.345Z,98903.41
2023-01-31T16:53:41.599Z,98896.53
2023-01-31T16:58:49.087Z,98888.78
2023-01-31T17:04:17.953Z,98883.56
2023-01-31T17:09:23.399Z,98887.16
2023-01-31T17:14:27.524Z,98883.56
2023-01-31T17:19:33.280Z,98901.97
2023-01-31T17:24:36.006Z,98893.13
2023-01-31T17:29:40.154Z,98887.91
2023-01-31T17:34:45.637Z,98896.75
2023-01-31T17:39:48.342Z,98890.66
2023-01-31T17:44:52.616Z,98901.03
2023-01-31T17:49:55.559Z,98891.31
2023-01-31T17:54:58.325Z,98890.50
2023-01-31T18:00:06.445Z,98893.19
2023-01-31T18:05:10.195Z,98897.69
2023-01-31T18:10:13.040Z,98903.06
2023-01-31T18:15:17.194Z,98908.22
2023-01-31T18:20:20.160Z,98903.91
2023-01-31T18:25:23.250Z,98895.16
2023-01-31T18:30:27.805Z,98893.28
2023-01-31T18:35:30.603Z,98894.06
2023-01-31T18:40:33.482Z,98908.00
2023-01-31T18:45:38.726Z,98900.09
2023-01-31T18:50:41.690Z,98900.00
2023-01-31T18:55:44.455Z,98900.94
2023-01-31T19:00:48.584Z,98879.00
2023-01-31T19:05:51.280Z,98884.19
2023-01-31T19:10:54.025Z,98882.31
2023-01-31T19:16:01.124Z,98896.28
2023-01-31T19:21:03.793Z,98896.19
2023-01-31T19:26:06.643Z,98876.81
2023-01-31T19:31:13.210Z,98881.38
2023-01-31T19:36:17.764Z,98887.53
2023-01-31T19:41:22.442Z,98886.53
2023-01-31T19:46:28.720Z,98887.28
2023-01-31T19:51:32.040Z,98891.63
2023-01-31T19:56:34.988Z,98901.16
2023-01-31T20:01:39.303Z,98907.13
2023-01-31T20:06:42.064Z,98918.34
2023-01-31T20:11:44.781Z,98920.16
2023-01-31T20:16:49.367Z,98916.66
2023-01-31T20:21:52.236Z,98921.09
2023-01-31T20:26:54.998Z,98925.34
2023-01-31T20:31:59.274Z,98929.44
2023-01-31T20:37:02.660Z,98934.66
2023-01-31T20:42:05.683Z,98936.38
2023-01-31T20:47:09.788Z,98933.72
2023-01-31T20:52:12.619Z,98941.63
2023-01-31T20:57:15.434Z,98938.06
2023-01-31T21:02:19.587Z,98934.56
2023-01-31T21:07:22.520Z,98913.44
2023-01-31T21:12:25.247Z,98915.41
2023-01-31T21:17:39.488Z,98910.44
2023-01-31T21:22:43.281Z,98916.75
2023-01-31T21:27:46.085Z,98926.53
2023-01-31T21:32:50.268Z,98918.63
2023-01-31T21:37:53.213Z,98912.47
2023-01-31T21:42:56.149Z,98915.97
2023-01-31T21:48:17.862Z,98911.53
2023-01-31T21:53:20.821Z,98909.00
2023-01-31T21:58:23.524Z,98900.31
2023-01-31T22:03:27.713Z,98894.66
2023-01-31T22:08:30.648Z,98881.88
2023-01-31T22:13:33.879Z,98874.13
2023-01-31T22:18:38.793Z,98888.16
2023-01-31T22:23:46.512Z,98893.28
2023-01-31T22:28:49.772Z,98887.91
2023-01-31T22:33:54.282Z,98887.84
2023-01-31T22:38:57.132Z,98882.56
2023-01-31T22:44:00.084Z,98870.56
2023-01-31T22:49:04.303Z,98885.06
2023-01-31T22:54:07.096Z,98871.66
2023-01-31T22:59:10.404Z,98851.25
2023-01-31T23:04:16.715Z,98845.06
2023-01-31T23:09:19.592Z,98837.75
2023-01-31T23:14:22.596Z,98848.19
2023-01-31T23:19:26.739Z,98840.13
2023-01-31T23:24:29.557Z,98847.03
2023-01-31T23:29:32.272Z,98819.72
2023-01-31T23:34:36.461Z,98823.91
2023-01-31T23:39:39.490Z,98838.72
2023-01-31T23:44:42.830Z,98849.94
2023-01-31T23:49:47.111Z,98827.06
2023-01-31T23:54:49.866Z,98824.34
2023-01-31T23:59:52.824Z,98817.19
